Time;durP1;ratioP1;P1;durP2;ratioP2;P2;SDS_P1;SDS_P2;PMS_P1;PMS_P2;Temp;Humidity;BMP_temperature;BMP_pressure;BME280_temperature;BME280_humidity;BME280_pressure;Samples;Min_cycle;Max_cycle;Signal;HPM_P1;HPM_P2
2022/07/31 00:02:23;;;;;;;6.13;3.83;;;25.10;52.10;;;25.43;36.57;98871.47;4998181;28;123746;-71
2022/07/31 00:04:49;;;;;;;5.00;3.27;;;25.00;52.10;;;25.41;36.95;98865.41;4989999;28;124010;-71
2022/07/31 00:07:16;;;;;;;5.33;4.00;;;25.00;52.10;;;25.39;37.08;98867.88;4993000;28;114315;-71
2022/07/31 00:09:42;;;;;;;5.33;3.63;;;25.00;52.20;;;25.36;37.19;98865.84;4975809;28;115349;-71
2022/07/31 00:12:09;;;;;;;7.50;4.77;;;25.00;52.40;;;25.33;37.02;98863.84;4987037;28;123860;-71
2022/07/31 00:14:35;;;;;;;6.57;3.13;;;25.00;52.40;;;25.30;36.88;98862.63;4984028;28;123013;-71
2022/07/31 00:17:02;;;;;;;6.40;3.80;;;24.90;52.40;;;25.26;36.86;98858.22;4972366;28;116066;-69
2022/07/31 00:19:28;;;;;;;4.23;3.47;;;24.90;52.40;;;25.22;37.28;98857.41;4998733;27;113788;-69
2022/07/31 00:21:56;;;;;;;5.30;3.70;;;24.90;52.50;;;25.18;36.69;98865.91;5034651;27;124642;-70
2022/07/31 00:24:25;;;;;;;5.03;3.60;;;24.80;52.50;;;25.16;37.19;98861.88;5038015;27;123955;-70
2022/07/31 00:26:52;;;;;;;5.47;3.70;;;24.80;52.60;;;25.11;37.21;98860.25;5035770;27;113018;-70
2022/07/31 00:29:18;;;;;;;4.20;3.43;;;24.80;52.60;;;25.09;37.14;98866.34;5034511;27;114211;-70
2022/07/31 00:31:45;;;;;;;4.30;3.13;;;24.70;52.50;;;25.07;37.18;98863.09;5038293;27;123914;-70
2022/07/31 00:34:11;;;;;;;4.13;2.83;;;24.70;52.60;;;25.05;37.40;98868.34;5034626;27;123690;-70
2022/07/31 00:36:38;;;;;;;7.47;2.50;;;24.70;52.60;;;25.02;37.28;98863.50;5032458;27;114818;-71
2022/07/31 00:39:04;;;;;;;4.00;3.00;;;24.60;52.60;;;25.00;37.22;98857.47;5037405;27;114935;-71
2022/07/31 00:41:41;;;;;;;4.87;2.47;;;24.60;52.80;;;24.98;37.34;98854.22;5035130;27;124749;-70
2022/07/31 00:44:09;;;;;;;3.50;2.77;;;24.60;53.10;;;24.97;37.53;98854.66;5037226;27;123678;-71
2022/07/31 00:46:36;;;;;;;3.43;2.80;;;24.60;53.30;;;24.95;37.76;98863.53;5039172;27;114030;-70
2022/07/31 00:49:06;;;;;;;4.07;3.00;;;24.50;53.40;;;24.92;37.95;98862.31;5035798;27;113872;-71
2022/07/31 00:51:32;;;;;;;5.73;3.30;;;24.50;53.70;;;24.89;38.37;98857.50;5031753;27;124100;-70
2022/07/31 00:53:59;;;;;;;4.87;3.30;;;24.50;54.00;;;24.86;38.62;98851.84;5027654;27;123771;-71
2022/07/31 00:56:25;;;;;;;6.10;3.33;;;24.50;54.40;;;24.84;38.71;98859.94;5029232;27;113505;-70
2022/07/31 00:58:54;;;;;;;5.97;3.27;;;24.40;54.60;;;24.83;38.96;98859.13;5031799;27;114020;-71
2022/07/31 01:01:21;;;;;;;5.60;3.50;;;24.40;54.90;;;24.81;39.28;98866.41;5029755;27;124361;-71
2022/07/31 01:03:49;;;;;;;5.40;3.20;;;24.40;55.30;;;24.79;39.59;98866.00;5038326;27;123325;-70
2022/07/31 01:06:15;;;;;;;5.73;2.90;;;24.40;55.50;;;24.77;39.63;98857.94;5029448;27;113431;-71
2022/07/31 01:08:42;;;;;;;9.33;3.50;;;24.40;55.80;;;24.75;39.88;98862.38;5032358;27;113448;-71
2022/07/31 01:11:29;;;;;;;6.00;3.43;;;24.30;56.10;;;24.73;40.22;98864.81;5025980;27;124340;-71
2022/07/31 01:14:02;;;;;;;3.40;2.70;;;24.30;56.60;;;24.72;40.32;98866.00;5037355;27;122843;-71
2022/07/31 01:16:35;;;;;;;5.40;3.60;;;24.30;56.80;;;24.69;40.30;98871.28;5035169;27;113543;-71
2022/07/31 01:19:14;;;;;;;4.20;3.23;;;24.30;57.00;;;24.68;40.36;98869.63;5036789;27;113696;-71
2022/07/31 01:22:07;;;;;;;6.30;3.50;;;24.30;57.20;;;24.67;40.79;98873.69;5028659;27;125156;-71
2022/07/31 01:24:58;;;;;;;3.90;2.97;;;24.30;57.40;;;24.63;40.54;98870.03;5032473;27;123808;-71
2022/07/31 01:27:31;;;;;;;5.30;3.10;;;24.30;57.70;;;24.62;40.63;98864.81;5030583;27;115074;-71
2022/07/31 01:30:02;;;;;;;3.80;2.90;;;24.20;57.60;;;24.60;41.05;98864.41;5030533;27;114941;-71
2022/07/31 01:32:35;;;;;;;4.47;3.30;;;24.30;57.80;;;24.57;41.01;98868.84;5030934;27;124356;-71
2022/07/31 01:35:04;;;;;;;6.37;3.70;;;24.20;57.80;;;24.54;41.00;98866.03;5030244;27;123532;-71
2022/07/31 01:37:55;;;;;;;5.30;3.57;;;24.10;58.00;;;24.52;41.10;98868.44;5041660;27;113558;-71
2022/07/31 01:40:36;;;;;;;7.73;3.67;;;24.10;58.10;;;24.46;40.98;98866.03;5034721;27;113940;-71
2022/07/31 01:43:19;;;;;;;3.17;2.87;;;24.10;58.20;;;24.44;41.27;98870.47;5051469;27;123040;-71
2022/07/31 01:45:52;;;;;;;5.73;3.43;;;24.10;58.40;;;24.42;41.35;98861.56;5028919;27;124016;-71
2022/07/31 01:48:19;;;;;;;5.53;3.03;;;24.00;58.50;;;24.41;41.25;98865.59;5024746;27;113483;-71
2022/07/31 01:50:49;;;;;;;6.60;3.37;;;24.00;58.70;;;24.40;41.47;98867.63;5035140;27;115711;-72
2022/07/31 01:53:21;;;;;;;5.73;3.33;;;24.00;58.80;;;24.38;41.64;98863.59;5044216;27;124322;-71
2022/07/31 01:55:51;;;;;;;6.50;3.73;;;24.00;59.10;;;24.36;41.60;98866.81;5044298;27;123849;-71
2022/07/31 01:58:23;;;;;;;4.70;3.30;;;24.00;59.20;;;24.34;41.83;98862.78;5031249;27;114208;-71
2022/07/31 02:00:53;;;;;;;4.93;2.93;;;23.90;59.30;;;24.32;42.11;98865.22;5046300;27;114246;-71
2022/07/31 02:03:21;;;;;;;5.00;3.83;;;23.90;59.50;;;24.30;42.05;98864.81;5032623;27;123058;-71
2022/07/31 02:05:49;;;;;;;5.23;2.90;;;23.90;59.70;;;24.29;42.26;98871.66;5043283;27;124311;-71
2022/07/31 02:08:17;;;;;;;4.60;2.93;;;23.90;59.80;;;24.25;42.21;98863.19;5048550;27;114347;-70
2022/07/31 02:10:47;;;;;;;4.43;3.23;;;23.90;60.00;;;24.23;42.32;98860.78;5043780;27;114033;-71
2022/07/31 02:13:16;;;;;;;4.67;3.40;;;23.90;60.10;;;24.21;42.19;98863.19;5031669;27;123045;-71
2022/07/31 02:15:44;;;;;;;5.13;3.10;;;23.80;60.20;;;24.19;42.30;98859.97;5038575;27;123794;-71
2022/07/31 02:18:12;;;;;;;4.13;3.00;;;23.80;60.30;;;24.17;42.48;98865.19;5047931;27;115221;-71
2022/07/31 02:20:39;;;;;;;6.23;3.80;;;23.80;60.40;;;24.14;42.49;98868.81;5047345;27;114899;-71
2022/07/31 02:23:06;;;;;;;5.33;2.87;;;23.70;60.50;;;24.12;42.74;98861.97;5048523;27;123792;-70
2022/07/31 02:25:35;;;;;;;5.77;3.43;;;23.70;60.60;;;24.09;42.72;98859.94;5028822;27;123776;-70
2022/07/31 02:28:09;;;;;;;5.60;3.73;;;23.70;60.80;;;24.08;42.72;98853.50;5042413;27;114487;-70
2022/07/31 02:30:40;;;;;;;5.00;3.67;;;23.80;61.10;;;24.05;42.79;98854.31;5046458;27;113035;-70
2022/07/31 02:33:13;;;;;;;4.63;3.67;;;23.70;61.10;;;24.05;42.83;98848.66;5038488;27;123386;-70
2022/07/31 02:35:44;;;;;;;4.03;2.50;;;23.60;61.10;;;24.02;42.86;98855.91;5047754;27;124124;-70
2022/07/31 02:38:13;;;;;;;5.13;3.60;;;23.60;61.20;;;23.99;42.73;98851.09;5036141;27;114447;-70
2022/07/31 02:40:40;;;;;;;5.07;2.93;;;23.60;61.10;;;23.98;42.39;98854.28;5043127;27;114497;-71
2022/07/31 02:43:10;;;;;;;4.30;2.97;;;23.60;60.90;;;23.97;42.36;98844.22;5037678;27;123212;-71
2022/07/31 02:45:37;;;;;;;5.37;2.90;;;23.60;60.80;;;23.94;42.50;98847.84;5039996;27;124318;-71
2022/07/31 02:48:05;;;;;;;5.00;2.97;;;23.50;60.70;;;23.92;42.63;98851.06;5047853;27;114170;-72
2022/07/31 02:50:31;;;;;;;8.93;3.13;;;23.50;60.70;;;23.90;42.31;98841.38;5040139;27;114013;-71
2022/07/31 02:52:58;;;;;;;3.47;2.80;;;23.50;60.60;;;23.87;42.22;98843.00;5049333;27;123056;-70
2022/07/31 02:55:25;;;;;;;3.30;3.00;;;23.50;60.60;;;23.86;42.30;98844.22;5045408;27;124271;-70
2022/07/31 02:57:52;;;;;;;4.77;3.13;;;23.50;61.40;;;23.83;42.11;98841.38;5042588;27;114564;-70
2022/07/31 03:00:25;;;;;;;5.33;3.17;;;23.40;60.60;;;23.80;42.34;98848.63;5038915;27;114519;-70
2022/07/31 03:02:53;;;;;;;4.97;3.47;;;23.40;60.60;;;23.76;42.15;98842.19;5047289;27;124005;-71
2022/07/31 03:05:21;;;;;;;5.33;3.70;;;24.40;61.50;;;23.73;42.22;98849.41;5032304;27;123675;-70
2022/07/31 03:07:48;;;;;;;4.83;3.27;;;23.40;60.60;;;23.73;42.27;98842.97;5035149;27;115136;-70
2022/07/31 03:10:14;;;;;;;7.00;3.50;;;23.30;60.60;;;23.71;42.26;98846.19;5044667;27;115122;-70
2022/07/31 03:12:45;;;;;;;3.90;3.17;;;23.30;60.60;;;23.68;42.17;98852.59;5026356;27;123269;-70
2022/07/31 03:15:18;;;;;;;5.10;3.13;;;23.30;60.60;;;23.67;42.08;98853.81;5040281;27;122896;-70
2022/07/31 03:17:46;;;;;;;4.00;3.13;;;23.30;60.50;;;23.65;41.83;98844.94;5042884;27;114170;-71
2022/07/31 03:20:14;;;;;;;3.70;2.93;;;23.20;60.30;;;23.62;42.00;98848.56;5049399;27;113080;-71
2022/07/31 03:22:42;;;;;;;3.67;2.77;;;23.20;60.30;;;23.58;41.89;98848.53;5046824;27;124108;-72
2022/07/31 03:25:10;;;;;;;3.70;2.83;;;23.20;60.30;;;23.55;42.09;98848.53;5034726;27;123683;-71
2022/07/31 03:27:37;;;;;;;2.50;2.27;;;23.20;60.40;;;23.54;42.01;98853.38;5045984;27;113448;-71
2022/07/31 03:30:05;;;;;;;3.53;3.10;;;23.10;60.40;;;23.52;42.25;98846.53;5041208;27;115176;-72
2022/07/31 03:32:34;;;;;;;3.73;2.60;;;23.10;60.50;;;23.49;42.11;98850.94;5049711;27;124204;-71
2022/07/31 03:35:01;;;;;;;3.70;2.70;;;23.10;60.60;;;23.48;42.25;98846.53;5037761;27;123874;-71
2022/07/31 03:37:27;;;;;;;5.17;2.73;;;23.10;60.70;;;23.46;42.43;98850.94;5042783;27;113259;-72
2022/07/31 03:39:54;;;;;;;2.87;2.50;;;23.10;60.80;;;23.43;42.50;98846.06;5046141;27;113885;-70
2022/07/31 03:42:21;;;;;;;9.40;3.93;;;23.00;60.80;;;23.42;42.46;98855.75;5037793;27;124086;-70
2022/07/31 03:44:49;;;;;;;6.90;3.40;;;23.00;60.90;;;23.40;42.72;98846.88;5047340;27;123002;-70
2022/07/31 03:47:15;;;;;;;3.00;2.70;;;23.00;61.10;;;23.37;42.65;98852.13;5049618;27;113854;-70
2022/07/31 03:49:42;;;;;;;7.10;3.20;;;23.00;61.20;;;23.36;42.60;98853.31;5035695;27;113448;-70
2022/07/31 03:52:09;;;;;;;2.90;2.60;;;23.00;61.20;;;23.33;42.71;98851.28;5041899;27;124046;-70
2022/07/31 03:54:36;;;;;;;4.30;2.90;;;22.90;61.20;;;23.32;42.71;98851.66;5045351;27;123849;-69
2022/07/31 03:57:03;;;;;;;3.77;2.87;;;22.90;61.30;;;23.30;42.87;98854.91;5045900;27;115731;-70
2022/07/31 03:59:32;;;;;;;3.27;2.97;;;22.90;61.50;;;23.28;42.77;98851.66;5044600;27;114832;-70
2022/07/31 04:02:00;;;;;;;4.73;3.17;;;22.90;61.50;;;23.27;42.87;98852.88;5042537;27;123375;-70
2022/07/31 04:04:26;;;;;;;3.97;2.77;;;22.80;61.50;;;23.26;42.83;98861.72;5034863;27;123782;-70
2022/07/31 04:06:53;;;;;;;5.60;3.30;;;22.80;61.60;;;23.23;42.79;98854.88;5043659;27;113726;-70
2022/07/31 04:09:19;;;;;;;3.20;2.90;;;22.80;61.60;;;23.16;42.72;98860.50;5034526;27;113351;-70
2022/07/31 04:11:46;;;;;;;4.83;3.20;;;22.80;61.80;;;23.12;42.94;98863.28;5030845;27;124082;-70
2022/07/31 04:14:12;;;;;;;3.40;3.07;;;22.70;61.80;;;23.10;43.21;98862.06;5039652;27;123791;-70
2022/07/31 04:16:39;;;;;;;3.40;2.60;;;22.70;62.00;;;23.09;43.26;98861.25;5047962;27;113866;-71
2022/07/31 04:19:05;;;;;;;3.53;3.20;;;22.60;62.10;;;23.05;43.33;98865.25;5030016;27;113837;-71
2022/07/31 04:21:32;;;;;;;5.07;3.30;;;22.60;62.20;;;22.97;43.25;98860.78;5041817;27;124093;-71
2022/07/31 04:23:59;;;;;;;4.67;3.03;;;22.50;62.30;;;22.88;43.41;98861.09;5044627;27;123798;-71
2022/07/31 04:26:25;;;;;;;3.70;3.00;;;22.40;62.50;;;22.85;43.47;98857.06;5036904;27;114635;-71
2022/07/31 04:28:52;;;;;;;2.70;2.40;;;22.40;62.70;;;22.91;43.32;98855.47;5043284;27;113869;-71
2022/07/31 04:31:18;;;;;;;4.90;3.47;;;22.40;62.90;;;23.01;43.47;98847.53;5043896;27;123459;-70
2022/07/31 04:33:45;;;;;;;5.10;3.07;;;22.40;63.00;;;23.02;43.23;98855.56;5042866;27;123894;-71
2022/07/31 04:36:11;;;;;;;3.40;2.90;;;22.40;62.80;;;23.00;43.16;98857.16;5047335;27;114446;-70
2022/07/31 04:38:38;;;;;;;3.40;3.10;;;22.40;63.50;;;22.97;43.02;98855.97;5041286;27;114004;-72
2022/07/31 04:41:04;;;;;;;3.10;2.57;;;22.40;62.70;;;22.98;43.21;98862.41;5031035;27;124300;-71
2022/07/31 04:43:31;;;;;;;4.43;2.83;;;22.40;62.70;;;22.99;42.92;98861.19;5043953;27;124003;-71
2022/07/31 04:45:57;;;;;;;2.83;2.30;;;22.50;62.70;;;23.00;43.19;98869.28;5033363;27;115478;-70
2022/07/31 04:48:24;;;;;;;3.60;2.80;;;22.50;62.60;;;23.04;43.02;98872.09;5035807;27;114901;-71
2022/07/31 04:50:50;;;;;;;4.37;2.77;;;22.50;62.60;;;23.09;43.00;98874.53;5047859;27;122989;-71
2022/07/31 04:53:17;;;;;;;3.63;2.80;;;22.60;62.80;;;23.12;43.03;98874.56;5042915;27;123998;-71
2022/07/31 04:56:31;;;;;;;3.10;2.80;;;22.60;62.80;;;23.17;42.70;98875.38;5046359;27;114328;-70
2022/07/31 04:58:30;;;;;;;3.70;2.77;;;22.60;62.60;;;23.18;42.88;98877.00;5043316;27;114058;-71
2022/07/31 05:00:56;;;;;;;3.03;2.33;;;22.60;62.50;;;23.20;42.61;98874.59;5042986;27;124754;-71
2022/07/31 05:03:23;;;;;;;6.10;2.90;;;22.70;62.40;;;23.22;42.55;98870.19;5033640;27;123963;-70
2022/07/31 05:05:49;;;;;;;3.30;2.60;;;22.70;62.30;;;23.21;42.45;98879.81;5040902;27;114313;-70
2022/07/31 05:08:16;;;;;;;3.80;2.77;;;22.70;62.10;;;23.23;42.56;98883.06;5043893;27;113969;-70
2022/07/31 05:13:28;;;;;;;3.73;3.33;;;22.70;61.80;;;23.20;41.76;98866.94;5046282;27;124091;-70
2022/07/31 05:15:54;;;;;;;6.40;3.07;;;22.70;61.80;;;23.24;42.33;98876.22;5050669;27;114587;-70
2022/07/31 05:18:21;;;;;;;4.43;2.83;;;22.70;62.00;;;23.27;42.31;98878.25;5041397;27;114305;-70
2022/07/31 05:20:48;;;;;;;3.00;2.70;;;22.70;61.80;;;23.30;42.22;98874.63;5040697;27;124456;-70
2022/07/31 05:23:14;;;;;;;3.03;2.73;;;22.70;61.80;;;23.33;42.13;98873.84;5047613;27;123740;-69
2022/07/31 05:25:41;;;;;;;3.20;2.50;;;22.80;61.80;;;23.33;41.98;98868.19;5038825;27;113353;-71
2022/07/31 05:28:07;;;;;;;2.97;2.20;;;22.80;61.70;;;23.33;41.88;98876.66;5050380;27;114114;-70
2022/07/31 05:30:34;;;;;;;4.40;2.63;;;22.80;61.60;;;23.32;42.02;98860.97;5052345;27;123462;-71
2022/07/31 05:33:00;;;;;;;4.17;2.70;;;22.80;61.60;;;23.33;42.18;98862.56;5043806;27;123896;-70
2022/07/31 05:35:27;;;;;;;4.03;2.33;;;22.80;61.60;;;23.35;41.93;98857.34;5043457;27;115053;-71
2022/07/31 05:37:54;;;;;;;4.20;2.70;;;22.80;61.60;;;23.37;42.14;98863.41;5044508;27;114000;-71
2022/07/31 05:40:20;;;;;;;4.70;2.60;;;22.90;61.80;;;23.41;41.98;98865.41;5046436;27;124023;-70
2022/07/31 05:42:47;;;;;;;3.23;2.50;;;22.90;61.80;;;23.44;42.03;98864.63;5040677;27;123208;-70
2022/07/31 05:45:13;;;;;;;5.20;2.80;;;22.90;61.80;;;23.46;42.05;98871.47;5040762;27;113303;-70
2022/07/31 05:47:40;;;;;;;3.00;2.47;;;23.00;61.90;;;23.48;42.04;98871.91;5039870;27;112932;-70
2022/07/31 05:50:07;;;;;;;4.33;2.67;;;23.00;61.80;;;23.50;41.91;98868.66;5048402;27;124791;-70
2022/07/31 05:52:33;;;;;;;5.03;2.43;;;23.00;61.60;;;23.51;41.78;98870.28;5046436;27;124040;-70
2022/07/31 05:55:03;;;;;;;3.00;2.67;;;23.00;61.50;;;23.52;41.71;98872.69;5045849;27;114699;-70
2022/07/31 05:57:29;;;;;;;3.40;2.30;;;23.00;61.40;;;23.54;41.64;98869.50;5052179;27;114223;-70
2022/07/31 05:59:56;;;;;;;2.43;2.23;;;23.00;61.30;;;23.58;41.74;98871.09;5044780;27;124113;-70
2022/07/31 06:02:22;;;;;;;4.60;3.37;;;23.00;61.40;;;23.62;41.71;98871.13;5041676;27;123596;-70
2022/07/31 06:04:49;;;;;;;2.80;2.47;;;23.10;61.50;;;23.65;41.81;98875.97;5044681;27;113478;-70
2022/07/31 06:07:15;;;;;;;3.50;2.40;;;23.10;61.60;;;23.68;41.77;98880.81;5040895;27;112865;-71
2022/07/31 06:09:42;;;;;;;4.00;2.47;;;23.10;61.70;;;23.73;41.54;98872.00;5043199;27;123825;-72
2022/07/31 06:12:08;;;;;;;3.57;2.53;;;23.20;61.60;;;23.77;41.55;98881.25;5045178;27;123595;-71
2022/07/31 06:14:35;;;;;;;6.33;2.43;;;23.20;61.50;;;23.80;41.72;98886.13;5044528;27;113260;-71
2022/07/31 06:17:06;;;;;;;7.20;2.60;;;23.30;61.70;;;23.84;41.81;98877.66;5045549;27;116171;-71
2022/07/31 06:19:33;;;;;;;3.23;2.50;;;23.30;61.80;;;23.83;41.71;98886.50;5030047;27;123235;-71
2022/07/31 06:22:00;;;;;;;3.67;2.60;;;23.20;61.70;;;23.80;42.00;98883.31;5034588;27;123904;-71
2022/07/31 06:24:26;;;;;;;4.20;2.90;;;23.20;62.00;;;23.75;41.92;98892.16;5038841;27;115050;-71
2022/07/31 06:26:58;;;;;;;4.60;3.00;;;23.20;62.10;;;23.73;42.04;98900.22;5041255;27;115102;-71
2022/07/31 06:29:24;;;;;;;4.63;3.10;;;23.20;62.40;;;23.70;42.24;98889.69;5034235;27;123987;-71
2022/07/31 06:31:51;;;;;;;5.40;3.00;;;23.10;62.40;;;23.66;42.55;98888.84;5040304;27;123018;-71
2022/07/31 06:34:18;;;;;;;2.50;2.30;;;23.10;62.80;;;23.64;42.64;98890.47;5049898;27;113850;-71
2022/07/31 06:36:44;;;;;;;3.50;2.73;;;23.10;63.10;;;23.66;43.02;98897.31;5048484;27;114153;-71
2022/07/31 06:39:11;;;;;;;6.83;3.47;;;23.10;63.40;;;23.67;42.90;98896.13;5046666;27;123464;-71
2022/07/31 06:41:43;;;;;;;2.97;2.43;;;23.10;63.60;;;23.72;43.13;98892.97;5034090;27;124280;-72
2022/07/31 06:44:10;;;;;;;5.00;3.00;;;23.10;63.60;;;23.78;42.99;98899.03;5031604;27;114317;-71
2022/07/31 06:46:36;;;;;;;3.67;2.50;;;23.20;63.90;;;23.80;42.90;98905.88;5043491;27;114496;-71
2022/07/31 06:49:03;;;;;;;7.00;2.90;;;23.20;63.80;;;23.83;42.95;98897.81;5035658;27;124517;-71
2022/07/31 06:51:29;;;;;;;3.97;2.93;;;23.20;63.80;;;23.89;42.95;98901.88;5048593;27;124012;-71
2022/07/31 06:53:57;;;;;;;6.10;2.97;;;23.30;64.10;;;23.95;43.05;98888.97;5045641;27;114185;-71
2022/07/31 06:56:23;;;;;;;5.47;2.97;;;23.40;64.30;;;23.98;42.93;98888.97;5047613;27;114408;-71
2022/07/31 06:58:50;;;;;;;3.00;2.67;;;23.40;64.40;;;24.02;43.22;98886.97;5049724;27;123547;-72
2022/07/31 07:01:16;;;;;;;3.60;3.03;;;23.40;64.40;;;24.08;43.02;98887.38;5042767;27;123954;-72
2022/07/31 07:03:43;;;;;;;3.70;2.93;;;23.50;64.60;;;24.13;43.19;98895.44;5036677;27;114091;-71
2022/07/31 07:06:10;;;;;;;3.23;2.93;;;23.50;64.70;;;24.16;43.13;98893.84;5036832;27;114069;-71
2022/07/31 07:08:36;;;;;;;4.00;2.83;;;23.60;64.80;;;24.16;43.04;98888.19;5040573;27;124703;-71
2022/07/31 07:11:03;;;;;;;5.80;3.10;;;23.60;64.60;;;24.18;43.08;98897.06;5040705;27;123087;-71
2022/07/31 07:13:30;;;;;;;2.90;2.50;;;23.60;64.60;;;24.23;42.82;98882.53;5040361;27;115217;-71
2022/07/31 07:15:56;;;;;;;5.13;3.10;;;23.60;64.60;;;24.29;42.93;98880.13;5027826;27;114392;-70
2022/07/31 07:18:23;;;;;;;4.33;2.37;;;23.70;64.70;;;24.37;43.12;98890.22;5036843;27;124311;-70
2022/07/31 07:20:50;;;;;;;3.80;2.67;;;23.70;64.70;;;24.41;42.67;98883.34;5038686;27;123868;-71
2022/07/31 07:23:19;;;;;;;4.33;2.80;;;23.80;64.70;;;24.40;42.88;98875.31;5039269;27;114259;-71
2022/07/31 07:25:45;;;;;;;3.97;3.17;;;23.80;64.70;;;24.39;42.72;98876.50;5037534;27;113833;-71
2022/07/31 07:28:12;;;;;;;2.90;2.63;;;23.70;64.60;;;24.43;43.09;98883.75;5037264;27;124252;-70
2022/07/31 07:30:39;;;;;;;3.77;2.90;;;23.80;64.90;;;24.50;43.21;98882.97;5037933;27;124162;-70
2022/07/31 07:33:05;;;;;;;3.30;2.63;;;23.90;65.20;;;24.52;42.92;98883.38;5038306;27;113781;-70
2022/07/31 07:35:32;;;;;;;3.53;3.00;;;23.90;65.00;;;24.57;42.82;98885.00;5036009;27;113507;-69
2022/07/31 07:37:59;;;;;;;4.23;2.77;;;23.90;65.10;;;24.63;42.54;98884.16;5030121;27;123880;-70
2022/07/31 07:40:26;;;;;;;3.13;2.77;;;24.00;65.10;;;24.72;42.59;98882.94;5033424;27;123936;-70
2022/07/31 07:42:52;;;;;;;4.00;3.13;;;24.00;65.00;;;24.78;42.46;98879.31;5030828;27;113456;-70
2022/07/31 07:45:19;;;;;;;3.20;2.90;;;24.10;64.90;;;24.85;42.44;98873.66;5036528;27;114420;-70
2022/07/31 07:47:45;;;;;;;3.83;2.80;;;24.20;64.80;;;24.93;42.40;98880.09;5025358;27;124054;-70
2022/07/31 07:50:14;;;;;;;4.33;3.10;;;24.30;64.90;;;24.98;42.24;98876.03;5027090;27;123994;-70
2022/07/31 07:52:41;;;;;;;4.07;2.93;;;24.30;64.60;;;25.00;42.14;98880.06;5035374;27;113679;-71
2022/07/31 07:55:08;;;;;;;3.40;2.60;;;24.30;64.40;;;25.03;42.08;98884.09;5031491;27;114058;-70
2022/07/31 07:57:35;;;;;;;5.30;2.60;;;24.40;64.40;;;25.08;41.94;98886.53;5043103;27;124049;-69
2022/07/31 08:00:06;;;;;;;4.00;2.93;;;24.40;65.00;;;25.13;41.67;98883.28;5019124;28;123390;-70
2022/07/31 08:02:33;;;;;;;3.60;2.73;;;24.50;64.20;;;25.16;41.90;98874.00;5034274;27;115423;-71
2022/07/31 08:05:00;;;;;;;2.77;2.33;;;24.50;64.00;;;25.19;41.86;98880.88;5030774;27;115314;-71
2022/07/31 08:07:33;;;;;;;3.63;2.33;;;24.50;64.00;;;25.22;42.04;98874.38;5039324;27;123423;-71
2022/07/31 08:10:00;;;;;;;3.30;2.73;;;24.60;64.10;;;25.27;42.05;98876.78;5045799;27;123734;-70
2022/07/31 08:12:27;;;;;;;3.03;2.73;;;24.60;64.20;;;25.34;41.94;98876.78;5042680;27;114086;-71
2022/07/31 08:14:54;;;;;;;4.40;2.67;;;24.80;64.40;;;25.41;42.02;98882.38;5045762;27;114089;-71
2022/07/31 08:17:20;;;;;;;3.00;2.37;;;24.80;64.50;;;25.49;42.18;98877.50;5046834;27;124374;-71
2022/07/31 08:19:47;;;;;;;12.70;3.10;;;24.90;64.50;;;25.49;41.86;98878.31;5046082;27;124038;-71
2022/07/31 08:22:14;;;;;;;3.40;2.70;;;24.90;64.40;;;25.51;42.14;98873.03;5046402;27;114275;-71
2022/07/31 08:24:40;;;;;;;5.03;2.67;;;24.90;64.30;;;25.52;41.62;98877.50;5028594;27;114156;-72
2022/07/31 08:29:56;;;;;;;5.37;2.90;;;24.90;64.20;;;25.67;41.71;98872.56;5043486;27;124211;-71
2022/07/31 08:32:24;;;;;;;5.43;2.90;;;25.00;64.80;;;25.73;41.61;98868.06;5045577;27;114649;-71
2022/07/31 08:34:52;;;;;;;4.30;2.90;;;25.10;63.70;;;25.76;41.24;98870.09;5049658;27;113156;-71
2022/07/31 08:37:19;;;;;;;3.60;2.60;;;25.10;63.50;;;25.81;41.00;98877.34;5042982;27;124425;-71
2022/07/31 08:39:48;;;;;;;3.50;2.67;;;25.20;63.50;;;25.90;41.08;98868.41;5044122;27;122909;-71
2022/07/31 08:42:15;;;;;;;4.03;2.70;;;25.20;63.60;;;25.99;40.76;98877.25;5039772;27;114281;-71
2022/07/31 08:44:43;;;;;;;3.10;2.50;;;25.30;63.60;;;26.05;40.75;98869.13;5037093;27;114216;-71
2022/07/31 08:47:14;;;;;;;4.33;3.33;;;25.30;63.10;;;26.09;40.10;98870.72;5042426;27;124139;-71
2022/07/31 08:49:48;;;;;;;3.80;2.67;;;25.40;62.60;;;26.15;40.00;98863.38;5045818;27;123641;-72
2022/07/31 08:52:23;;;;;;;2.80;2.50;;;25.50;62.40;;;26.23;39.97;98861.31;5046624;27;115255;-72
2022/07/31 08:54:52;;;;;;;2.87;2.10;;;25.50;61.80;;;26.21;39.68;98858.88;5049531;27;115217;-72
2022/07/31 08:57:19;;;;;;;4.67;2.60;;;25.50;61.50;;;26.23;40.04;98861.31;5031794;27;124081;-72
2022/07/31 08:59:51;;;;;;;4.40;2.53;;;25.50;61.60;;;26.29;40.10;98859.63;5046047;27;123373;-71
2022/07/31 09:02:17;;;;;;;4.70;2.63;;;25.60;61.70;;;26.38;40.05;98857.13;5048664;27;113699;-71
2022/07/31 09:04:44;;;;;;;3.60;2.57;;;25.70;61.80;;;26.49;39.83;98862.72;5047750;27;113911;-71
2022/07/31 09:07:14;;;;;;;2.93;2.40;;;25.80;61.90;;;26.56;39.82;98853.34;5048219;27;124008;-71
2022/07/31 09:09:46;;;;;;;2.63;2.30;;;25.90;62.40;;;26.58;39.36;98851.72;5043580;27;123827;-72
2022/07/31 09:12:12;;;;;;;5.83;2.67;;;25.90;61.40;;;26.63;39.58;98848.44;5047077;27;113982;-72
2022/07/31 09:14:47;;;;;;;7.43;2.93;;;26.00;61.90;;;26.70;39.43;98843.91;5046475;27;114123;-73
2022/07/31 09:17:14;;;;;;;3.57;2.60;;;26.00;61.10;;;26.78;39.23;98843.41;5037077;27;125341;-73
2022/07/31 09:19:44;;;;;;;3.53;2.50;;;26.10;60.80;;;26.84;38.79;98836.06;5037898;27;123018;-73
2022/07/31 09:22:25;;;;;;;2.73;2.27;;;26.20;60.40;;;26.92;38.29;98835.97;5019828;27;113835;-72
2022/07/31 09:24:53;;;;;;;3.13;2.23;;;26.30;59.80;;;27.00;38.33;98829.00;5040331;27;114870;-72
2022/07/31 09:27:26;;;;;;;3.23;2.60;;;26.30;59.30;;;27.06;37.15;98830.16;5038907;27;124160;-72
2022/07/31 09:29:55;;;;;;;2.67;2.10;;;26.40;58.40;;;27.12;37.39;98830.50;5037577;27;123824;-73
2022/07/31 09:32:22;;;;;;;3.50;2.20;;;26.50;57.80;;;27.17;36.42;98824.38;5040886;27;114332;-72
2022/07/31 09:34:49;;;;;;;5.53;2.80;;;26.50;57.20;;;27.23;36.74;98820.63;5038441;27;113685;-72
2022/07/31 09:37:20;;;;;;;3.70;2.43;;;26.60;57.80;;;27.31;36.52;98825.00;5045377;27;124547;-72
2022/07/31 09:39:53;;;;;;;3.13;2.40;;;26.60;57.00;;;27.39;35.54;98819.22;5041166;27;123007;-72
2022/07/31 09:42:20;;;;;;;4.10;2.80;;;26.70;55.40;;;27.45;35.50;98809.81;5034459;27;115439;-72
2022/07/31 09:44:50;;;;;;;3.20;1.90;;;26.80;55.40;;;27.54;35.62;98807.25;5036653;27;114731;-72
2022/07/31 09:47:30;;;;;;;10.13;2.63;;;26.90;55.40;;;27.65;35.10;98811.97;5034297;27;124370;-72
2022/07/31 09:50:01;;;;;;;3.20;2.20;;;27.00;54.60;;;27.77;34.53;98812.19;5040811;27;123692;-71
2022/07/31 09:52:31;;;;;;;3.93;2.17;;;27.10;53.90;;;27.88;33.55;98805.56;5036482;27;114109;-71
2022/07/31 09:55:04;;;;;;;2.40;2.20;;;27.20;52.90;;;27.97;33.38;98808.69;5044591;27;113007;-72
2022/07/31 09:57:31;;;;;;;12.47;2.50;;;27.30;52.40;;;28.06;32.91;98797.56;5042411;27;123531;-72
2022/07/31 09:59:58;;;;;;;3.47;2.07;;;27.40;51.70;;;28.14;32.63;98796.22;5044016;27;124173;-72
2022/07/31 10:02:26;;;;;;;3.83;2.07;;;27.50;51.20;;;28.22;32.46;98798.94;5037381;27;113483;-71
2022/07/31 10:04:57;;;;;;;3.23;2.10;;;27.60;50.80;;;28.26;32.53;98794.78;5036512;27;114429;-72
2022/07/31 10:07:26;;;;;;;2.77;2.20;;;27.60;50.50;;;28.32;32.57;98795.13;5031336;27;123491;-72
2022/07/31 10:09:57;;;;;;;3.43;1.93;;;27.70;50.50;;;28.41;32.33;98786.81;5039628;27;123843;-72
2022/07/31 10:12:28;;;;;;;3.10;1.87;;;27.80;50.70;;;28.49;32.40;98782.63;5032743;27;113917;-73
2022/07/31 10:15:01;;;;;;;4.20;1.90;;;27.90;50.10;;;28.56;32.17;98773.97;5033729;27;112850;-71
2022/07/31 10:17:31;;;;;;;1.80;1.60;;;27.90;50.00;;;28.62;31.97;98777.91;5030102;27;124943;-71
2022/07/31 10:20:03;;;;;;;2.10;1.83;;;28.00;49.70;;;28.68;31.63;98771.72;5038267;27;123645;-72
2022/07/31 10:22:45;;;;;;;1.90;1.70;;;28.10;49.30;;;28.68;31.60;98764.00;5039946;27;113067;-73
2022/07/31 10:25:29;;;;;;;3.30;1.73;;;28.10;49.10;;;28.70;31.73;98772.09;5019270;27;113145;-72